Time;durP1;ratioP1;P1;durP2;ratioP2;P2;SDS_P1;SDS_P2;PMS_P1;PMS_P2;Temp;Humidity;BMP_temperature;BMP_pressure;BME280_temperature;BME280_humidity;BME280_pressure;Samples;Min_cycle;Max_cycle;Signal;HPM_P1;HPM_P2
2022/03/08 00:00:55;;;;;;;19.40;8.90;;;;;;;-2.30;85.43;101921.66;107843;1279;72715;-75
2022/03/08 00:03:21;;;;;;;19.00;9.30;;;;;;;-2.31;85.59;101923.96;108060;1278;73006;-76
2022/03/08 00:05:48;;;;;;;19.30;8.50;;;;;;;-2.33;85.55;101921.28;108058;1278;59870;-75
2022/03/08 00:08:14;;;;;;;17.00;7.70;;;;;;;-2.35;85.58;101918.59;108124;1276;59887;-73
2022/03/08 00:10:41;;;;;;;16.10;7.90;;;;;;;-2.36;85.94;101915.85;108062;1277;60070;-76
2022/03/08 00:13:07;;;;;;;17.90;8.40;;;;;;;-2.37;85.80;101917.27;107947;1277;72384;-76
2022/03/08 00:15:34;;;;;;;20.40;9.10;;;;;;;-2.38;85.75;101917.66;108046;1277;60173;-76
2022/03/08 00:18:00;;;;;;;18.30;8.90;;;;;;;-2.38;85.93;101913.86;107885;1279;60037;-75
2022/03/08 00:20:27;;;;;;;20.50;8.40;;;;;;;-2.39;85.80;101908.02;108082;1278;59870;-73
2022/03/08 00:22:54;;;;;;;9.20;5.70;;;;;;;-2.41;86.17;101903.08;108010;1279;76714;-76
2022/03/08 00:25:20;;;;;;;19.10;7.70;;;;;;;-2.43;86.24;101902.60;108026;1278;71218;-73
2022/03/08 00:27:47;;;;;;;20.90;8.60;;;;;;;-2.43;86.08;101905.41;108133;1277;59710;-75
2022/03/08 00:30:20;;;;;;;16.50;8.20;;;;;;;-2.45;86.12;101902.69;108118;1277;62255;-75
2022/03/08 00:32:47;;;;;;;17.00;9.20;;;;;;;-2.47;86.06;101900.48;108078;1277;61729;-76
2022/03/08 00:35:14;;;;;;;19.50;8.90;;;;;;;-2.49;86.03;101895.55;108075;1277;76933;-76
2022/03/08 00:37:42;;;;;;;16.80;8.40;;;;;;;-2.51;85.94;101893.04;108124;1277;71503;-75
2022/03/08 00:40:10;;;;;;;16.70;7.80;;;;;;;-2.53;86.08;101889.14;107697;1280;74177;-76
2022/03/08 00:42:37;;;;;;;19.10;8.60;;;;;;;-2.52;86.24;101886.01;108011;1277;62320;-74
2022/03/08 00:45:07;;;;;;;22.70;10.10;;;;;;;-2.55;86.07;101889.58;108074;1277;60662;-73
2022/03/08 00:47:35;;;;;;;16.90;8.70;;;;;;;-2.57;86.13;101887.05;107911;1279;76948;-73
2022/03/08 00:50:03;;;;;;;20.60;8.10;;;;;;;-2.62;86.07;101883.09;108066;1277;72351;-75
2022/03/08 00:52:30;;;;;;;17.40;7.90;;;;;;;-2.61;86.09;101888.23;108099;1277;72891;-76
2022/03/08 00:54:57;;;;;;;23.70;10.00;;;;;;;-2.63;86.07;101888.16;108060;1278;60139;-76
2022/03/08 00:57:23;;;;;;;14.70;8.10;;;;;;;-2.66;86.23;101887.06;107938;1277;59844;-76
2022/03/08 00:59:50;;;;;;;15.90;7.90;;;;;;;-2.67;86.41;101887.81;108090;1278;60224;-73
2022/03/08 01:02:16;;;;;;;16.60;8.10;;;;;;;-2.70;86.37;101878.73;107877;1280;59861;-73
2022/03/08 01:04:43;;;;;;;18.50;7.80;;;;;;;-2.72;86.30;101874.29;107876;1280;72909;-75
2022/03/08 01:07:09;;;;;;;17.20;8.80;;;;;;;-2.74;86.25;101873.67;108037;1277;59878;-75
2022/03/08 01:09:36;;;;;;;17.10;8.10;;;;;;;-2.78;86.02;101873.33;108075;1279;60278;-76
2022/03/08 01:12:03;;;;;;;17.10;8.80;;;;;;;-2.81;85.91;101876.75;108092;1278;60544;-75
2022/03/08 01:14:30;;;;;;;18.00;8.40;;;;;;;-2.86;85.92;101876.76;108022;1277;72738;-73
2022/03/08 01:16:56;;;;;;;13.80;7.80;;;;;;;-2.89;86.22;101877.02;108075;1277;72993;-73
2022/03/08 01:19:23;;;;;;;17.60;9.10;;;;;;;-2.91;86.37;101880.05;108062;1277;61658;-73
2022/03/08 01:21:49;;;;;;;16.30;8.10;;;;;;;-2.93;86.42;101881.88;108073;1278;60194;-76
2022/03/08 01:24:16;;;;;;;11.80;6.90;;;;;;;-2.96;86.37;101880.77;107917;1279;60052;-73
2022/03/08 01:26:42;;;;;;;19.80;9.10;;;;;;;-3.00;86.18;101880.74;108147;1277;59961;-72
2022/03/08 01:29:09;;;;;;;17.80;8.90;;;;;;;-3.05;86.35;101882.14;108110;1276;59848;-75
2022/03/08 01:31:35;;;;;;;17.00;8.50;;;;;;;-3.09;86.47;101880.75;108112;1278;59986;-73
2022/03/08 01:34:03;;;;;;;16.40;8.10;;;;;;;-3.13;86.52;101876.94;108055;1278;59831;-77
2022/03/08 01:36:29;;;;;;;16.20;8.00;;;;;;;-3.16;86.74;101878.25;108078;1277;76468;-77
2022/03/08 01:38:56;;;;;;;21.70;8.30;;;;;;;-3.18;86.94;101875.73;108131;1277;60384;-74
2022/03/08 01:41:23;;;;;;;17.60;8.00;;;;;;;-3.20;87.06;101870.94;108045;1277;72526;-74
2022/03/08 01:43:50;;;;;;;19.10;9.30;;;;;;;-3.22;87.04;101866.70;108080;1277;61215;-73
2022/03/08 01:46:17;;;;;;;20.30;8.90;;;;;;;-3.24;86.95;101867.30;107864;1281;59774;-76
2022/03/08 01:48:43;;;;;;;17.20;8.00;;;;;;;-3.28;86.96;101864.31;108115;1277;77104;-74
2022/03/08 01:51:12;;;;;;;19.00;8.80;;;;;;;-3.30;87.07;101869.06;107897;1279;59951;-77
2022/03/08 01:53:42;;;;;;;19.50;9.00;;;;;;;-3.33;86.95;101871.56;108089;1277;74688;-76
2022/03/08 01:56:10;;;;;;;20.50;8.70;;;;;;;-3.34;87.15;101870.79;108037;1278;62687;-73
2022/03/08 01:58:37;;;;;;;15.30;9.40;;;;;;;-3.35;87.43;101868.55;108127;1277;61148;-77
2022/03/08 02:01:07;;;;;;;19.00;8.60;;;;;;;-3.35;87.63;101863.35;108023;1278;75891;-77
2022/03/08 02:03:34;;;;;;;17.20;8.00;;;;;;;-3.35;87.61;101863.70;108010;1277;71732;-73
2022/03/08 02:06:01;;;;;;;18.00;8.40;;;;;;;-3.36;87.51;101863.08;108060;1277;72958;-76
2022/03/08 02:08:30;;;;;;;20.60;7.80;;;;;;;-3.38;87.52;101862.97;108092;1277;61451;-77
2022/03/08 02:10:57;;;;;;;18.70;8.10;;;;;;;-3.40;87.42;101855.23;108015;1278;59925;-76
2022/03/08 02:13:25;;;;;;;18.50;8.60;;;;;;;-3.42;87.58;101854.98;108027;1278;75456;-74
2022/03/08 02:15:52;;;;;;;20.50;8.30;;;;;;;-3.42;87.55;101855.85;108064;1278;71323;-73
2022/03/08 02:18:19;;;;;;;17.40;9.00;;;;;;;-3.44;87.73;101853.31;108034;1279;72935;-77
2022/03/08 02:20:46;;;;;;;21.80;8.70;;;;;;;-3.46;87.65;101845.45;108043;1278;61432;-75
2022/03/08 02:23:13;;;;;;;18.90;8.20;;;;;;;-3.46;87.73;101848.91;107878;1280;59957;-76
2022/03/08 02:25:40;;;;;;;19.10;8.80;;;;;;;-3.47;87.81;101848.59;108034;1279;75873;-77
2022/03/08 02:28:07;;;;;;;16.70;8.30;;;;;;;-3.49;87.97;101851.60;108078;1277;72378;-76
2022/03/08 02:30:33;;;;;;;21.40;8.70;;;;;;;-3.50;88.10;101851.49;107836;1279;74019;-76
2022/03/08 02:33:00;;;;;;;16.40;8.90;;;;;;;-3.53;87.85;101855.55;108060;1277;62165;-77
2022/03/08 02:35:29;;;;;;;16.40;8.50;;;;;;;-3.55;87.76;101855.48;107868;1279;60287;-74
2022/03/08 02:38:05;;;;;;;16.80;7.70;;;;;;;-3.60;88.11;101849.40;107955;1280;75793;-76
2022/03/08 02:40:38;;;;;;;17.00;9.00;;;;;;;-3.58;88.28;101851.58;108013;1279;72085;-73
2022/03/08 02:43:07;;;;;;;18.90;9.10;;;;;;;-3.60;88.38;101845.27;108071;1277;72260;-74
2022/03/08 02:45:33;;;;;;;21.30;8.50;;;;;;;-3.61;88.44;101847.21;108113;1278;63159;-76
2022/03/08 02:48:00;;;;;;;18.10;8.80;;;;;;;-3.63;88.41;101848.48;108093;1277;60382;-77
2022/03/08 02:50:26;;;;;;;21.50;9.70;;;;;;;-3.67;88.40;101844.80;108064;1279;76646;-74
2022/03/08 02:52:55;;;;;;;21.40;9.40;;;;;;;-3.70;88.21;101847.52;108115;1278;72383;-73
2022/03/08 02:55:24;;;;;;;19.60;9.30;;;;;;;-3.76;88.24;101844.60;108060;1279;73040;-78
2022/03/08 02:57:52;;;;;;;17.30;8.70;;;;;;;-3.78;88.18;101848.30;108046;1277;61130;-73
2022/03/08 03:00:20;;;;;;;20.60;8.10;;;;;;;-3.81;88.23;101847.41;108075;1277;60275;-77
2022/03/08 03:02:47;;;;;;;17.20;7.50;;;;;;;-3.84;88.31;101848.00;108085;1278;75763;-76
2022/03/08 03:05:14;;;;;;;15.40;8.00;;;;;;;-3.85;88.36;101849.61;108076;1278;72816;-73
2022/03/08 03:07:41;;;;;;;16.30;7.10;;;;;;;-3.88;88.44;101848.33;108041;1277;73988;-73
2022/03/08 03:10:10;;;;;;;15.30;8.10;;;;;;;-3.91;88.46;101843.39;108065;1278;61339;-76
2022/03/08 03:12:37;;;;;;;18.00;7.40;;;;;;;-3.93;88.72;101843.46;107699;1279;60399;-76
2022/03/08 03:15:06;;;;;;;19.70;9.30;;;;;;;-3.96;88.58;101845.30;107962;1280;76695;-75
2022/03/08 03:17:33;;;;;;;17.20;8.30;;;;;;;-3.97;88.53;101843.63;108032;1278;71388;-76
2022/03/08 03:20:00;;;;;;;15.20;7.90;;;;;;;-4.00;88.52;101844.42;108133;1278;72875;-73
2022/03/08 03:22:26;;;;;;;17.60;8.70;;;;;;;-4.02;88.59;101846.75;107992;1278;61457;-73
2022/03/08 03:24:53;;;;;;;18.90;8.60;;;;;;;-4.04;88.77;101844.89;108034;1277;61317;-76
2022/03/08 03:27:19;;;;;;;19.40;8.00;;;;;;;-4.05;89.08;101845.27;108078;1278;59941;-73
2022/03/08 03:29:45;;;;;;;16.90;8.30;;;;;;;-4.04;89.16;101848.52;108119;1277;59921;-76
2022/03/08 03:32:12;;;;;;;18.40;9.00;;;;;;;-4.05;89.09;101847.73;108093;1279;60204;-73
2022/03/08 03:34:38;;;;;;;20.70;9.40;;;;;;;-4.06;89.37;101843.23;108103;1277;59882;-74
2022/03/08 03:37:05;;;;;;;20.10;8.90;;;;;;;-4.06;89.52;101842.05;107877;1279;59822;-73
2022/03/08 03:39:31;;;;;;;15.60;8.80;;;;;;;-4.07;89.52;101836.37;108024;1279;60269;-73
2022/03/08 03:41:58;;;;;;;22.10;9.60;;;;;;;-4.07;89.82;101836.38;107945;1279;72697;-74
2022/03/08 03:44:24;;;;;;;21.90;8.90;;;;;;;-4.08;89.75;101835.54;108023;1278;60074;-73
2022/03/08 03:46:51;;;;;;;20.90;9.00;;;;;;;-4.09;89.75;101837.11;108007;1279;59957;-74
2022/03/08 03:49:18;;;;;;;20.00;10.40;;;;;;;-4.11;89.81;101840.12;108062;1279;59984;-74
2022/03/08 03:51:46;;;;;;;20.10;8.80;;;;;;;-4.12;90.04;101841.72;108019;1279;59291;-73
2022/03/08 03:54:13;;;;;;;20.70;10.40;;;;;;;-4.12;90.26;101847.08;108017;1279;72048;-74
2022/03/08 03:56:39;;;;;;;18.60;9.70;;;;;;;-4.12;90.49;101846.91;108002;1279;72924;-77
2022/03/08 03:59:06;;;;;;;21.20;10.70;;;;;;;-4.13;90.41;101849.17;108014;1279;59730;-77
2022/03/08 04:01:32;;;;;;;24.30;9.70;;;;;;;-4.14;90.42;101854.20;108018;1279;59274;-77
2022/03/08 04:03:59;;;;;;;19.60;10.40;;;;;;;-4.15;90.47;101853.73;108004;1279;76046;-73
2022/03/08 04:06:26;;;;;;;20.10;9.60;;;;;;;-4.16;90.67;101849.79;108014;1279;59879;-76
2022/03/08 04:08:52;;;;;;;22.40;9.40;;;;;;;-4.15;90.83;101850.64;108064;1279;59946;-76
2022/03/08 04:11:18;;;;;;;24.20;10.30;;;;;;;-4.16;90.85;101850.50;107997;1279;60386;-76
2022/03/08 04:13:45;;;;;;;17.30;9.00;;;;;;;-4.18;91.00;101849.84;108020;1278;60043;-78
2022/03/08 04:16:11;;;;;;;20.90;9.70;;;;;;;-4.19;91.08;101844.35;107847;1279;59957;-73
2022/03/08 04:18:38;;;;;;;23.80;10.80;;;;;;;-4.17;91.44;101843.28;108013;1279;60252;-75
2022/03/08 04:21:04;;;;;;;19.10;9.80;;;;;;;-4.17;91.38;101847.25;108009;1279;59968;-76
2022/03/08 04:23:31;;;;;;;18.60;9.70;;;;;;;-4.18;91.45;101847.43;107913;1279;60163;-76
2022/03/08 04:25:57;;;;;;;17.80;8.80;;;;;;;-4.19;91.39;101851.63;108001;1279;59216;-76
2022/03/08 04:28:24;;;;;;;16.10;9.30;;;;;;;-4.21;91.25;101852.73;107987;1279;76195;-76
2022/03/08 04:30:51;;;;;;;19.50;8.80;;;;;;;-4.23;91.18;101849.70;107957;1279;59902;-72
2022/03/08 04:33:17;;;;;;;20.30;10.20;;;;;;;-4.25;91.29;101852.17;108046;1279;72552;-73
2022/03/08 04:35:44;;;;;;;19.10;8.80;;;;;;;-4.26;91.59;101854.45;108011;1279;60079;-74
2022/03/08 04:38:11;;;;;;;19.30;9.30;;;;;;;-4.27;91.65;101849.83;108143;1279;59680;-74
2022/03/08 04:40:37;;;;;;;17.40;9.20;;;;;;;-4.27;91.62;101855.71;108123;1279;60578;-76
2022/03/08 04:43:04;;;;;;;21.30;9.60;;;;;;;-4.28;91.69;101856.08;108135;1278;59904;-76
2022/03/08 04:45:30;;;;;;;16.20;9.70;;;;;;;-4.30;91.91;101858.38;108118;1278;59995;-76
2022/03/08 04:47:57;;;;;;;18.70;9.30;;;;;;;-4.32;91.73;101854.83;108228;1278;61236;-74
2022/03/08 04:50:23;;;;;;;19.90;10.70;;;;;;;-4.34;91.64;101853.49;108127;1279;59795;-76
2022/03/08 04:52:51;;;;;;;20.50;9.00;;;;;;;-4.36;91.71;101854.61;108135;1278;75882;-74
2022/03/08 04:55:19;;;;;;;19.10;9.40;;;;;;;-4.38;91.74;101855.73;107973;1279;71450;-76
2022/03/08 04:57:47;;;;;;;15.80;8.90;;;;;;;-4.40;91.97;101852.69;108105;1279;72863;-74
2022/03/08 05:00:15;;;;;;;21.70;9.30;;;;;;;-4.42;91.80;101852.05;108120;1278;62295;-74
2022/03/08 05:02:44;;;;;;;18.00;9.10;;;;;;;-4.44;91.94;101851.43;107770;1278;61597;-77
2022/03/08 05:05:13;;;;;;;19.60;9.40;;;;;;;-4.47;91.97;101848.40;108013;1278;75087;-76
2022/03/08 05:07:40;;;;;;;17.80;8.20;;;;;;;-4.48;91.97;101852.06;108144;1279;71646;-77
2022/03/08 05:10:10;;;;;;;17.00;8.90;;;;;;;-4.49;92.13;101851.77;108137;1277;74286;-73
2022/03/08 05:12:37;;;;;;;19.60;7.40;;;;;;;-4.50;92.35;101851.09;108094;1279;62755;-77
2022/03/08 05:15:05;;;;;;;16.10;7.60;;;;;;;-4.51;92.36;101848.37;108105;1278;59756;-77
2022/03/08 05:17:32;;;;;;;21.10;8.90;;;;;;;-4.54;92.19;101849.99;108138;1278;76639;-76
2022/03/08 05:19:58;;;;;;;19.10;7.80;;;;;;;-4.56;92.30;101854.55;107904;1279;72355;-73
2022/03/08 05:22:25;;;;;;;19.10;8.60;;;;;;;-4.57;92.28;101850.29;108084;1278;60084;-76
2022/03/08 05:24:51;;;;;;;19.10;8.80;;;;;;;-4.58;92.42;101855.83;108101;1279;59946;-74
2022/03/08 05:27:18;;;;;;;19.60;8.60;;;;;;;-4.59;92.43;101852.07;108068;1278;60335;-77
2022/03/08 05:29:44;;;;;;;21.60;9.00;;;;;;;-4.58;92.55;101852.90;108089;1278;60073;-77
2022/03/08 05:32:11;;;;;;;26.40;8.70;;;;;;;-4.54;92.66;101855.90;108065;1278;60139;-77
2022/03/08 05:34:37;;;;;;;14.80;6.80;;;;;;;-4.48;93.16;101856.58;108210;1278;60261;-75
2022/03/08 05:37:04;;;;;;;18.90;7.60;;;;;;;-4.46;93.01;101860.63;107741;1280;59984;-77
2022/03/08 05:39:30;;;;;;;18.70;9.20;;;;;;;-4.43;92.85;101860.02;107961;1279;60806;-76
2022/03/08 05:41:57;;;;;;;16.00;9.00;;;;;;;-4.40;93.02;101862.70;108102;1279;59871;-77
2022/03/08 05:44:23;;;;;;;17.00;9.40;;;;;;;-4.37;93.05;101862.73;108154;1277;59850;-74
2022/03/08 05:46:50;;;;;;;13.10;7.00;;;;;;;-4.33;93.05;101865.38;108129;1278;72543;-78
2022/03/08 05:49:17;;;;;;;21.30;10.00;;;;;;;-4.31;92.97;101868.59;108206;1277;61883;-77
2022/03/08 05:51:44;;;;;;;18.60;8.40;;;;;;;-4.29;92.58;101867.51;107918;1279;61691;-75
2022/03/08 05:54:11;;;;;;;19.50;9.10;;;;;;;-4.28;92.45;101864.18;108143;1278;76894;-75
2022/03/08 05:56:37;;;;;;;23.90;10.30;;;;;;;-4.28;92.25;101862.98;107928;1279;71401;-79
2022/03/08 05:59:04;;;;;;;24.80;9.60;;;;;;;-4.28;92.27;101866.27;108245;1273;72889;-75
2022/03/08 06:01:30;;;;;;;15.30;8.00;;;;;;;-4.27;92.17;101866.25;108243;1277;59826;-78
2022/03/08 06:03:58;;;;;;;17.10;8.50;;;;;;;-4.26;92.13;101874.69;108261;1277;60572;-75
2022/03/08 06:06:26;;;;;;;18.20;7.90;;;;;;;-4.27;92.00;101873.14;108291;1277;77001;-75
2022/03/08 06:08:52;;;;;;;14.50;7.20;;;;;;;-4.25;92.02;101874.45;108168;1277;71274;-77
2022/03/08 06:11:18;;;;;;;20.00;8.50;;;;;;;-4.23;92.07;101875.08;108276;1277;60168;-77
2022/03/08 06:13:45;;;;;;;14.10;8.00;;;;;;;-4.20;92.12;101879.46;108243;1277;59979;-77
2022/03/08 06:16:13;;;;;;;17.70;8.90;;;;;;;-4.18;92.00;101881.11;108344;1277;59875;-74
2022/03/08 06:18:40;;;;;;;18.60;8.60;;;;;;;-4.14;92.05;101878.77;108108;1277;75579;-77
2022/03/08 06:21:06;;;;;;;13.00;6.80;;;;;;;-4.11;92.02;101882.80;108232;1277;72246;-77
2022/03/08 06:23:33;;;;;;;13.70;7.50;;;;;;;-4.08;91.92;101883.23;108271;1277;72290;-77
2022/03/08 06:26:00;;;;;;;14.90;7.50;;;;;;;-4.04;92.02;101882.92;108322;1277;62439;-77
2022/03/08 06:28:27;;;;;;;18.10;8.30;;;;;;;-3.98;92.11;101884.28;108322;1277;60349;-77
2022/03/08 06:30:57;;;;;;;19.50;9.10;;;;;;;-3.92;92.24;101883.20;108315;1277;75931;-75
2022/03/08 06:33:24;;;;;;;17.60;7.30;;;;;;;-3.86;92.14;101885.77;108340;1277;71350;-75
2022/03/08 06:35:50;;;;;;;14.90;8.70;;;;;;;-3.79;92.17;101882.41;108347;1277;60117;-78
2022/03/08 06:38:19;;;;;;;15.00;7.30;;;;;;;-3.73;92.15;101880.80;108331;1277;59961;-75
2022/03/08 06:40:49;;;;;;;12.30;7.50;;;;;;;-3.65;92.09;101878.11;108025;1277;61789;-75
2022/03/08 06:43:15;;;;;;;17.00;8.50;;;;;;;-3.57;92.09;101875.59;108312;1277;75365;-75
2022/03/08 06:45:43;;;;;;;18.10;8.80;;;;;;;-3.49;92.14;101872.38;108129;1277;71168;-77
2022/03/08 06:48:11;;;;;;;14.40;6.70;;;;;;;-3.41;92.00;101870.17;108199;1277;74698;-77
2022/03/08 06:50:37;;;;;;;17.70;8.80;;;;;;;-3.34;91.90;101871.13;108142;1277;62597;-75
2022/03/08 06:53:04;;;;;;;12.80;5.30;;;;;;;-3.27;91.71;101868.45;108167;1277;61359;-75
2022/03/08 06:55:31;;;;;;;17.60;8.90;;;;;;;-3.21;91.57;101869.94;108133;1277;75747;-74
2022/03/08 06:57:57;;;;;;;19.10;9.90;;;;;;;-3.14;91.43;101866.38;108005;1277;71427;-77
2022/03/08 07:00:23;;;;;;;19.00;9.50;;;;;;;-3.05;91.61;101868.14;108174;1277;59226;-78
2022/03/08 07:02:50;;;;;;;16.20;9.20;;;;;;;-2.95;91.92;101861.52;108203;1277;59972;-76
2022/03/08 07:05:16;;;;;;;23.50;9.60;;;;;;;-2.83;92.08;101861.23;108176;1277;59247;-75
2022/03/08 07:07:43;;;;;;;18.70;9.50;;;;;;;-2.70;92.05;101860.05;108136;1277;59887;-75
2022/03/08 07:10:09;;;;;;;17.00;8.30;;;;;;;-2.58;91.91;101861.48;108201;1277;60365;-77
2022/03/08 07:12:36;;;;;;;17.80;8.70;;;;;;;-2.46;91.87;101862.38;108193;1277;59941;-77
2022/03/08 07:15:03;;;;;;;17.80;8.90;;;;;;;-2.33;91.90;101867.38;108104;1277;60104;-74
2022/03/08 07:17:29;;;;;;;17.90;8.80;;;;;;;-2.19;91.89;101868.02;108222;1277;61352;-77
2022/03/08 07:19:56;;;;;;;19.30;9.00;;;;;;;-2.04;91.71;101866.71;108052;1277;60329;-77
2022/03/08 07:22:22;;;;;;;18.10;9.20;;;;;;;-1.89;91.67;101866.25;108260;1276;59860;-77
2022/03/08 07:24:49;;;;;;;17.10;8.50;;;;;;;-1.74;91.46;101873.73;108133;1277;59756;-75
2022/03/08 07:27:15;;;;;;;21.40;8.60;;;;;;;-1.59;91.19;101872.94;108209;1277;59940;-77
2022/03/08 07:29:43;;;;;;;17.80;9.30;;;;;;;-1.46;90.53;101876.50;108140;1277;59885;-77
2022/03/08 07:32:12;;;;;;;12.80;5.90;;;;;;;-1.34;90.03;101879.27;107960;1278;76883;-77
2022/03/08 07:34:38;;;;;;;17.10;8.50;;;;;;;-1.22;89.87;101875.09;108080;1278;72129;-76
2022/03/08 07:37:07;;;;;;;16.90;9.10;;;;;;;-1.10;89.56;101875.79;108110;1277;61002;-75
2022/03/08 07:39:34;;;;;;;16.60;8.70;;;;;;;-0.99;89.14;101877.84;107908;1277;250943;-75
2022/03/08 07:42:00;;;;;;;14.10;6.70;;;;;;;-0.88;88.93;101874.73;108153;1277;60079;-77
2022/03/08 07:44:27;;;;;;;18.30;8.30;;;;;;;-0.76;88.45;101877.47;108133;1277;60239;-75
2022/03/08 07:46:55;;;;;;;15.60;8.00;;;;;;;-0.63;88.31;101875.66;108123;1277;60174;-77
2022/03/08 07:49:22;;;;;;;14.00;7.10;;;;;;;-0.49;88.30;101873.73;108211;1277;74359;-76
2022/03/08 07:51:49;;;;;;;22.50;8.30;;;;;;;-0.37;87.60;101874.38;108040;1277;61149;-77
2022/03/08 07:54:17;;;;;;;8.70;4.90;;;;;;;-0.24;87.41;101875.84;108166;1277;61166;-75
2022/03/08 07:56:43;;;;;;;8.30;4.80;;;;;;;-0.14;86.44;101883.86;108016;1278;76854;-78
2022/03/08 07:59:11;;;;;;;18.80;7.70;;;;;;;-0.03;86.22;101883.48;108047;1277;71487;-75
2022/03/08 08:01:37;;;;;;;18.30;8.20;;;;;;;0.09;86.19;101885.64;107983;1277;73994;-77
2022/03/08 08:04:04;;;;;;;14.60;7.60;;;;;;;0.22;85.72;101886.21;108180;1277;61400;-75
2022/03/08 08:06:30;;;;;;;14.70;8.40;;;;;;;0.37;85.80;101890.33;108121;1277;60030;-74
2022/03/08 08:09:00;;;;;;;20.80;8.80;;;;;;;0.54;85.72;101894.69;108225;1277;74709;-74
2022/03/08 08:11:26;;;;;;;18.70;8.70;;;;;;;0.68;85.19;101898.28;108107;1277;59235;-74
2022/03/08 08:13:55;;;;;;;17.30;7.40;;;;;;;0.83;85.06;101900.80;108038;1277;59919;-77
2022/03/08 08:16:23;;;;;;;15.70;8.00;;;;;;;1.00;84.87;101902.13;108175;1277;62321;-75
2022/03/08 08:18:50;;;;;;;14.00;8.30;;;;;;;1.16;84.64;101900.56;108054;1278;60499;-76
2022/03/08 08:21:17;;;;;;;14.30;7.90;;;;;;;1.32;84.24;101895.36;108148;1277;76344;-75
2022/03/08 08:23:43;;;;;;;13.50;8.30;;;;;;;1.47;84.00;101897.43;107952;1278;72547;-77
2022/03/08 08:26:10;;;;;;;17.80;6.10;;;;;;;1.62;83.36;101894.16;108127;1277;72982;-74
2022/03/08 08:28:36;;;;;;;14.70;7.70;;;;;;;1.74;82.56;101894.39;108034;1280;59976;-75
2022/03/08 08:31:06;;;;;;;13.20;6.80;;;;;;;1.85;82.21;101893.02;108158;1277;59935;-74
2022/03/08 08:33:33;;;;;;;12.90;7.40;;;;;;;1.96;81.60;101892.24;108164;1277;76894;-76
2022/03/08 08:36:00;;;;;;;15.40;8.10;;;;;;;2.10;81.79;101894.35;108142;1277;72345;-77
2022/03/08 08:38:26;;;;;;;14.30;8.20;;;;;;;2.27;81.49;101892.46;108233;1277;72871;-77
2022/03/08 08:40:53;;;;;;;11.70;6.00;;;;;;;2.42;80.26;101891.90;108231;1277;59892;-77
2022/03/08 08:43:20;;;;;;;13.50;7.40;;;;;;;2.49;78.38;101889.75;108176;1277;59991;-75
2022/03/08 08:45:51;;;;;;;10.40;5.60;;;;;;;2.57;78.16;101889.64;108189;1277;76604;-75
2022/03/08 08:48:19;;;;;;;10.10;5.90;;;;;;;2.65;77.74;101890.55;108238;1277;70547;-74
2022/03/08 08:50:46;;;;;;;13.80;6.90;;;;;;;2.75;77.71;101884.38;108107;1277;74009;-76
2022/03/08 08:53:13;;;;;;;13.90;5.90;;;;;;;2.86;77.34;101878.93;108228;1277;60144;-75
2022/03/08 08:55:39;;;;;;;12.40;5.80;;;;;;;2.97;75.95;101878.81;107942;1277;60735;-77
2022/03/08 08:58:06;;;;;;;14.60;6.50;;;;;;;3.06;75.36;101875.46;108175;1277;60351;-77
2022/03/08 09:00:34;;;;;;;16.00;7.70;;;;;;;3.18;75.85;101874.27;108055;1277;72939;-75
2022/03/08 09:03:01;;;;;;;14.90;7.50;;;;;;;3.31;75.08;101874.89;108093;1277;72935;-75
2022/03/08 09:05:33;;;;;;;10.30;6.00;;;;;;;3.44;75.20;101871.78;108154;1277;61443;-74
2022/03/08 09:08:00;;;;;;;10.80;5.20;;;;;;;3.56;74.18;101869.28;108143;1277;60741;-75
2022/03/08 09:10:26;;;;;;;11.40;5.90;;;;;;;3.67;73.66;101865.71;108131;1277;59965;-76
2022/03/08 09:12:53;;;;;;;14.90;7.40;;;;;;;3.82;73.55;101867.39;108189;1277;60355;-77
2022/03/08 09:15:21;;;;;;;12.70;7.10;;;;;;;3.97;72.87;101862.69;108073;1278;73693;-77
2022/03/08 09:17:48;;;;;;;15.70;7.30;;;;;;;4.11;73.56;101862.45;107977;1278;61673;-77
2022/03/08 09:20:15;;;;;;;16.80;7.60;;;;;;;4.27;73.03;101863.64;108233;1277;62264;-74
2022/03/08 09:22:47;;;;;;;7.70;4.60;;;;;;;4.43;72.73;101858.84;108066;1277;77074;-74
2022/03/08 09:25:14;;;;;;;9.00;5.50;;;;;;;4.56;72.13;101859.70;108114;1277;71589;-76
2022/03/08 09:27:41;;;;;;;11.20;6.00;;;;;;;4.67;71.32;101854.89;108171;1277;71991;-75
2022/03/08 09:30:08;;;;;;;10.90;6.10;;;;;;;4.79;71.24;101853.35;108143;1277;60679;-74
2022/03/08 09:32:34;;;;;;;10.80;5.60;;;;;;;4.93;70.74;101849.92;108132;1277;60557;-75
2022/03/08 09:35:01;;;;;;;10.50;5.90;;;;;;;5.06;70.55;101850.70;108188;1277;59858;-74
2022/03/08 09:37:28;;;;;;;11.90;5.80;;;;;;;5.16;69.89;101848.28;108091;1277;71335;-74
2022/03/08 09:39:54;;;;;;;8.60;4.80;;;;;;;5.24;69.87;101853.11;108133;1277;71930;-75
2022/03/08 09:42:21;;;;;;;8.30;4.80;;;;;;;5.34;68.89;101848.34;108106;1277;60265;-76
2022/03/08 09:44:48;;;;;;;12.10;6.00;;;;;;;5.42;68.46;101842.90;108168;1277;60626;-74
2022/03/08 09:47:17;;;;;;;10.30;4.70;;;;;;;5.51;67.35;101842.20;107935;1277;75713;-75
2022/03/08 09:49:43;;;;;;;10.80;4.80;;;;;;;5.59;66.61;101845.08;108124;1277;72716;-75
2022/03/08 09:52:11;;;;;;;7.40;4.30;;;;;;;5.68;66.74;101844.44;108232;1277;73032;-75
2022/03/08 09:54:37;;;;;;;9.70;5.10;;;;;;;5.78;66.08;101836.55;108137;1277;59947;-76
2022/03/08 09:57:08;;;;;;;9.00;4.80;;;;;;;5.87;65.55;101835.31;108054;1277;60116;-75
2022/03/08 09:59:35;;;;;;;10.40;5.00;;;;;;;6.00;65.54;101834.51;108185;1277;76852;-74
2022/03/08 10:02:04;;;;;;;8.30;4.30;;;;;;;6.15;65.64;101834.10;108152;1277;73851;-75
2022/03/08 10:04:31;;;;;;;7.90;3.70;;;;;;;6.29;65.87;101833.35;108006;1277;71655;-75
2022/03/08 10:07:17;;;;;;;17.20;4.50;;;;;;;6.41;64.02;101832.63;108129;1277;60907;-76
2022/03/08 10:09:57;;;;;;;8.10;3.80;;;;;;;6.49;63.44;101828.61;108158;1277;60317;-74
2022/03/08 10:12:25;;;;;;;7.60;3.40;;;;;;;6.55;60.85;101825.70;107955;1280;76475;-75
2022/03/08 10:14:52;;;;;;;7.30;2.90;;;;;;;6.60;60.43;101826.72;108025;1277;72332;-75
2022/03/08 10:17:34;;;;;;;4.70;2.40;;;;;;;6.65;60.04;101827.55;108188;1277;73984;-75
2022/03/08 10:20:19;;;;;;;4.60;2.50;;;;;;;6.74;60.36;101831.23;108187;1277;60003;-74
2022/03/08 10:22:48;;;;;;;4.60;2.60;;;;;;;6.83;58.81;101830.39;107930;1272;60469;-75
2022/03/08 10:25:25;;;;;;;4.80;2.70;;;;;;;6.87;58.41;101833.16;108190;1277;60025;-75
2022/03/08 10:27:51;;;;;;;4.40;2.40;;;;;;;6.98;58.57;101833.71;108240;1277;71610;-77
2022/03/08 10:30:18;;;;;;;6.10;2.90;;;;;;;7.08;57.33;101837.13;108214;1277;59819;-76
2022/03/08 10:33:02;;;;;;;5.70;2.80;;;;;;;7.21;56.91;101835.39;108050;1277;59829;-75
2022/03/08 10:35:31;;;;;;;5.60;2.30;;;;;;;7.33;56.22;101831.40;108231;1277;59185;-77
2022/03/08 10:38:04;;;;;;;4.70;2.20;;;;;;;7.40;53.26;101820.32;108275;1277;76922;-76
2022/03/08 10:40:32;;;;;;;3.90;2.20;;;;;;;7.48;53.37;101822.41;108149;1276;71530;-74
2022/03/08 10:43:06;;;;;;;2.60;1.80;;;;;;;7.55;51.87;101819.24;107696;1277;72527;-74
2022/03/08 10:45:35;;;;;;;5.60;1.60;;;;;;;7.60;52.09;101817.76;108159;1277;60412;-76
2022/03/08 10:48:06;;;;;;;3.80;1.70;;;;;;;7.71;52.93;101810.99;108226;1277;60355;-75
2022/03/08 10:50:37;;;;;;;3.70;1.60;;;;;;;7.87;53.15;101809.55;107851;1277;76749;-75
2022/03/08 10:53:05;;;;;;;3.70;1.90;;;;;;;8.00;51.62;101807.55;108084;1279;74110;-75
2022/03/08 10:55:34;;;;;;;2.40;1.10;;;;;;;8.10;51.09;101807.38;108015;1277;71844;-75
2022/03/08 10:58:04;;;;;;;2.00;1.20;;;;;;;8.19;49.76;101811.21;108026;1277;60819;-75
2022/03/08 11:00:39;;;;;;;6.90;1.40;;;;;;;8.26;49.08;101807.94;108073;1277;60582;-77
2022/03/08 11:03:09;;;;;;;2.80;0.80;;;;;;;8.34;47.80;101803.55;108156;1278;75687;-75
2022/03/08 11:05:38;;;;;;;2.50;1.20;;;;;;;8.40;45.27;101799.35;108094;1277;71500;-75
2022/03/08 11:08:06;;;;;;;1.30;0.70;;;;;;;8.48;44.95;101797.05;107774;1279;72943;-76
2022/03/08 11:10:34;;;;;;;3.50;1.20;;;;;;;8.55;45.17;101790.85;108073;1277;60566;-78
2022/03/08 11:13:02;;;;;;;2.30;1.10;;;;;;;8.62;45.77;101789.74;108055;1279;60352;-74